createdAt,value
2019-02-22T00:00:56.852Z,3.10
2019-02-22T00:02:23.256Z,3.50
2019-02-22T00:03:28.649Z,3.35
2019-02-22T00:04:33.896Z,4.33
2019-02-22T00:05:38.934Z,5.60
2019-02-22T00:06:44.272Z,4.10
2019-02-22T00:07:51.976Z,4.55
2019-02-22T00:08:57.514Z,4.55
2019-02-22T00:10:02.773Z,5.47
2019-02-22T00:11:08.127Z,3.22
2019-02-22T00:12:13.758Z,4.83
2019-02-22T00:13:19.021Z,3.92
2019-02-22T00:14:24.167Z,4.53
2019-02-22T00:15:29.268Z,4.28
2019-02-22T00:16:34.578Z,3.72
2019-02-22T00:17:39.578Z,3.75
2019-02-22T00:18:44.792Z,3.92
2019-02-22T00:19:49.762Z,3.83
2019-02-22T00:20:54.721Z,3.55
2019-02-22T00:21:59.667Z,3.50
2019-02-22T00:23:04.539Z,3.20
2019-02-22T00:24:09.472Z,3.52
2019-02-22T00:25:14.422Z,4.03
2019-02-22T00:26:19.517Z,4.20
2019-02-22T00:27:24.372Z,3.83
2019-02-22T00:28:29.432Z,3.83
2019-02-22T00:29:34.342Z,3.77
2019-02-22T00:30:39.247Z,3.27
2019-02-22T00:31:44.524Z,3.20
2019-02-22T00:32:49.420Z,3.37
2019-02-22T00:33:54.305Z,3.50
2019-02-22T00:34:59.337Z,4.10
2019-02-22T00:36:04.298Z,4.03
2019-02-22T00:37:09.177Z,3.50
2019-02-22T00:38:14.527Z,2.98
2019-02-22T00:39:19.508Z,3.15
2019-02-22T00:40:24.422Z,2.92
2019-02-22T00:41:29.319Z,3.72
2019-02-22T00:42:34.164Z,3.62
2019-02-22T00:43:39.049Z,3.12
2019-02-22T00:44:43.773Z,3.80
2019-02-22T00:45:48.664Z,3.50
2019-02-22T00:46:53.683Z,3.77
2019-02-22T00:47:58.597Z,3.70
2019-02-22T00:49:03.467Z,3.60
2019-02-22T00:50:08.750Z,3.30
2019-02-22T00:51:13.721Z,3.10
2019-02-22T00:52:18.585Z,3.47
2019-02-22T00:53:23.636Z,3.30
2019-02-22T00:54:28.504Z,4.17
2019-02-22T00:55:33.416Z,3.67
2019-02-22T00:56:38.337Z,3.52
2019-02-22T00:57:43.218Z,3.27
2019-02-22T00:58:48.136Z,3.33
2019-02-22T00:59:53.285Z,3.20
2019-02-22T01:00:58.156Z,3.22
2019-02-22T01:02:03.154Z,3.55
2019-02-22T01:03:08.077Z,3.50
2019-02-22T01:04:13.214Z,3.85
2019-02-22T01:05:18.108Z,4.30
2019-02-22T01:06:22.992Z,3.02
2019-02-22T01:07:28.008Z,3.90
2019-02-22T01:08:32.876Z,3.35
2019-02-22T01:09:37.800Z,3.67
2019-02-22T01:10:42.728Z,4.28
2019-02-22T01:11:47.629Z,3.72
2019-02-22T01:12:52.484Z,4.10
2019-02-22T01:13:57.401Z,3.22
2019-02-22T01:15:02.666Z,3.98
2019-02-22T01:16:08.563Z,3.67
2019-02-22T01:17:13.454Z,3.80
2019-02-22T01:18:19.523Z,3.55
2019-02-22T01:19:24.435Z,3.50
2019-02-22T01:20:29.354Z,3.60
2019-02-22T01:21:34.282Z,3.67
2019-02-22T01:22:39.342Z,4.00
2019-02-22T01:23:44.246Z,3.15
2019-02-22T01:24:49.091Z,3.50
2019-02-22T01:25:53.836Z,3.00
2019-02-22T01:26:58.757Z,3.58
2019-02-22T01:28:03.643Z,3.87
2019-02-22T01:29:08.568Z,3.65
2019-02-22T01:30:13.484Z,3.33
2019-02-22T01:31:18.280Z,3.15
2019-02-22T01:32:23.440Z,3.42
2019-02-22T01:33:28.637Z,2.90
2019-02-22T01:34:33.571Z,2.65
2019-02-22T01:35:38.468Z,3.02
2019-02-22T01:36:43.366Z,3.12
2019-02-22T01:37:48.235Z,2.60
2019-02-22T01:38:53.697Z,2.92
2019-02-22T01:39:58.623Z,3.10
2019-02-22T01:41:03.484Z,2.67
2019-02-22T01:42:11.595Z,2.80
2019-02-22T01:43:16.405Z,2.83
2019-02-22T01:44:24.483Z,2.45
2019-02-22T01:45:29.365Z,2.62
2019-02-22T01:46:34.352Z,3.02
2019-02-22T01:47:39.180Z,2.87
2019-02-22T01:48:44.030Z,3.25
2019-02-22T01:49:48.889Z,3.10
2019-02-22T01:50:53.768Z,3.15
2019-02-22T01:51:58.716Z,3.25
2019-02-22T01:53:03.660Z,3.42
2019-02-22T01:54:08.665Z,3.62
2019-02-22T01:55:13.564Z,3.47
2019-02-22T01:56:18.503Z,2.60
2019-02-22T01:57:23.315Z,3.20
2019-02-22T01:58:28.489Z,2.45
2019-02-22T01:59:33.354Z,2.40
2019-02-22T02:00:38.660Z,2.47
2019-02-22T02:01:43.391Z,2.22
2019-02-22T02:02:48.171Z,2.42
2019-02-22T02:03:53.033Z,2.80
2019-02-22T02:04:57.828Z,2.70
2019-02-22T02:06:02.753Z,2.35
2019-02-22T02:07:08.144Z,2.25
2019-02-22T02:08:13.252Z,2.30
2019-02-22T02:09:18.290Z,3.45
2019-02-22T02:10:23.463Z,2.60
2019-02-22T02:11:28.772Z,2.65
2019-02-22T02:12:33.678Z,2.30
2019-02-22T02:13:38.507Z,2.50
2019-02-22T02:14:43.320Z,2.30
2019-02-22T02:15:48.131Z,2.05
2019-02-22T02:16:53.049Z,2.50
2019-02-22T02:17:57.901Z,2.77
2019-02-22T02:19:02.792Z,2.17
2019-02-22T02:20:08.762Z,2.75
2019-02-22T02:21:13.504Z,2.12
2019-02-22T02:22:18.282Z,2.35
2019-02-22T02:23:23.285Z,2.40
2019-02-22T02:24:28.215Z,2.58
2019-02-22T02:25:33.042Z,2.33
2019-02-22T02:26:37.924Z,2.20
2019-02-22T02:27:42.789Z,2.40
2019-02-22T02:28:47.693Z,2.60
2019-02-22T02:29:52.539Z,2.05
2019-02-22T02:30:57.317Z,2.33
2019-02-22T02:32:02.217Z,2.20
2019-02-22T02:33:06.892Z,1.95
2019-02-22T02:34:11.696Z,2.02
2019-02-22T02:35:16.600Z,2.17
2019-02-22T02:36:21.468Z,2.75
2019-02-22T02:37:26.883Z,2.60
2019-02-22T02:38:31.730Z,2.25
2019-02-22T02:39:37.103Z,2.20
2019-02-22T02:40:41.830Z,3.12
2019-02-22T02:41:46.655Z,2.60
2019-02-22T02:42:51.417Z,3.02
2019-02-22T02:43:56.244Z,2.42
2019-02-22T02:45:01.091Z,2.42
2019-02-22T02:46:05.932Z,2.20
2019-02-22T02:47:10.820Z,2.00
2019-02-22T02:48:15.712Z,2.70
2019-02-22T02:49:20.449Z,3.02
2019-02-22T02:50:25.468Z,2.33
2019-02-22T02:51:30.251Z,2.35
2019-02-22T02:52:35.167Z,2.10
2019-02-22T02:53:39.904Z,2.40
2019-02-22T02:54:44.901Z,2.52
2019-02-22T02:55:49.796Z,2.27
2019-02-22T02:56:54.562Z,2.62
2019-02-22T02:57:59.420Z,2.80
2019-02-22T02:59:04.286Z,2.30
2019-02-22T03:00:09.404Z,2.42
2019-02-22T03:01:14.172Z,2.58
2019-02-22T03:02:29.656Z,2.45
2019-02-22T03:03:34.507Z,2.20
2019-02-22T03:04:39.312Z,2.08
2019-02-22T03:05:59.914Z,2.40
2019-02-22T03:07:09.610Z,2.87
2019-02-22T03:08:14.498Z,2.70
2019-02-22T03:09:19.384Z,3.20
2019-02-22T03:10:24.133Z,2.77
2019-02-22T03:11:28.893Z,2.85
2019-02-22T03:12:33.959Z,2.72
2019-02-22T03:13:38.669Z,3.42
2019-02-22T03:14:43.433Z,2.95
2019-02-22T03:15:48.288Z,3.20
2019-02-22T03:16:53.001Z,3.05
2019-02-22T03:17:57.700Z,2.60
2019-02-22T03:19:02.463Z,2.30
2019-02-22T03:20:07.582Z,2.30
2019-02-22T03:21:12.551Z,2.08
2019-02-22T03:22:17.426Z,2.20
2019-02-22T03:23:22.184Z,1.98
2019-02-22T03:24:26.976Z,2.40
2019-02-22T03:25:31.738Z,2.58
2019-02-22T03:26:36.748Z,2.42
2019-02-22T03:27:41.433Z,2.22
2019-02-22T03:28:46.190Z,1.62
2019-02-22T03:29:50.964Z,2.00
2019-02-22T03:30:55.806Z,2.52
2019-02-22T03:32:00.661Z,2.67
2019-02-22T03:33:05.443Z,2.25
2019-02-22T03:34:10.251Z,2.02
2019-02-22T03:35:14.998Z,2.20
2019-02-22T03:36:19.700Z,2.45
2019-02-22T03:37:24.448Z,2.35
2019-02-22T03:38:29.220Z,2.55
2019-02-22T03:39:34.034Z,2.35
2019-02-22T03:40:38.781Z,2.60
2019-02-22T03:41:43.546Z,2.27
2019-02-22T03:42:48.420Z,2.65
2019-02-22T03:43:53.122Z,2.62
2019-02-22T03:44:57.887Z,2.30
2019-02-22T03:46:02.643Z,2.05
2019-02-22T03:47:07.385Z,2.10
2019-02-22T03:48:12.148Z,2.27
2019-02-22T03:49:16.968Z,2.20
2019-02-22T03:50:21.756Z,2.52
2019-02-22T03:51:26.680Z,2.12
2019-02-22T03:52:35.704Z,2.33
2019-02-22T03:53:44.862Z,1.85
2019-02-22T03:54:50.110Z,2.22
2019-02-22T03:55:54.942Z,2.15
2019-02-22T03:56:59.790Z,2.35
2019-02-22T03:58:04.884Z,2.22
2019-02-22T03:59:09.816Z,1.90
2019-02-22T04:00:14.677Z,2.10
2019-02-22T04:01:19.521Z,2.17
2019-02-22T04:02:24.775Z,2.77
2019-02-22T04:03:29.731Z,2.08
2019-02-22T04:04:34.565Z,2.33
2019-02-22T04:05:39.701Z,2.47
2019-02-22T04:06:44.646Z,2.58
2019-02-22T04:07:49.363Z,2.67
2019-02-22T04:08:54.170Z,2.50
2019-02-22T04:09:58.909Z,2.40
2019-02-22T04:11:03.767Z,2.35
2019-02-22T04:12:08.518Z,3.10
2019-02-22T04:13:13.376Z,2.90
2019-02-22T04:14:18.231Z,3.10
2019-02-22T04:15:23.122Z,2.92
2019-02-22T04:16:28.011Z,2.50
2019-02-22T04:17:32.826Z,2.30
2019-02-22T04:18:37.684Z,2.58
2019-02-22T04:19:42.450Z,2.50
2019-02-22T04:20:47.252Z,2.37
2019-02-22T04:21:52.106Z,2.47
2019-02-22T04:22:56.896Z,2.72
2019-02-22T04:24:01.663Z,2.42
2019-02-22T04:25:06.678Z,2.45
2019-02-22T04:26:11.706Z,2.10
2019-02-22T04:27:16.520Z,2.60
2019-02-22T04:28:21.245Z,2.52
2019-02-22T04:29:25.984Z,2.33
2019-02-22T04:30:30.794Z,2.25
2019-02-22T04:31:35.561Z,2.60
2019-02-22T04:32:40.448Z,2.90
2019-02-22T04:33:45.310Z,2.62
2019-02-22T04:34:50.065Z,2.95
2019-02-22T04:35:54.876Z,3.10
2019-02-22T04:36:59.648Z,2.70
2019-02-22T04:38:04.417Z,2.60
2019-02-22T04:39:09.161Z,2.40
2019-02-22T04:40:13.922Z,2.42
2019-02-22T04:41:18.926Z,2.52
2019-02-22T04:42:23.681Z,2.67
2019-02-22T04:43:28.477Z,2.90
2019-02-22T04:44:33.356Z,2.80
2019-02-22T04:45:38.166Z,2.20
2019-02-22T04:46:42.964Z,2.17
2019-02-22T04:47:47.752Z,2.55
2019-02-22T04:48:52.498Z,2.10
2019-02-22T04:49:57.237Z,2.20
2019-02-22T04:51:02.104Z,2.12
2019-02-22T04:52:07.301Z,1.92
2019-02-22T04:53:12.036Z,2.02
2019-02-22T04:54:16.853Z,2.05
2019-02-22T04:55:21.628Z,2.20
2019-02-22T04:56:26.609Z,2.00
2019-02-22T04:57:31.314Z,2.37
2019-02-22T04:58:36.075Z,2.10
2019-02-22T04:59:41.037Z,2.10
2019-02-22T05:00:45.807Z,1.90
2019-02-22T05:01:50.556Z,1.87
2019-02-22T05:02:55.543Z,2.10
2019-02-22T05:04:00.280Z,2.35
2019-02-22T05:05:05.915Z,2.27
2019-02-22T05:06:10.712Z,2.22
2019-02-22T05:07:15.437Z,2.20
2019-02-22T05:08:20.378Z,2.20
2019-02-22T05:09:25.188Z,2.45
2019-02-22T05:10:30.071Z,1.77
2019-02-22T05:11:34.930Z,2.10
2019-02-22T05:12:40.045Z,3.50
2019-02-22T05:13:44.861Z,2.08
2019-02-22T05:14:49.656Z,2.17
2019-02-22T05:15:54.432Z,2.20
2019-02-22T05:16:59.197Z,2.17
2019-02-22T05:18:04.046Z,2.70
2019-02-22T05:19:08.810Z,2.10
2019-02-22T05:20:13.808Z,1.98
2019-02-22T05:21:18.718Z,2.30
2019-02-22T05:22:23.538Z,2.30
2019-02-22T05:23:28.293Z,2.20
2019-02-22T05:24:33.051Z,2.00
2019-02-22T05:25:37.844Z,2.00
2019-02-22T05:26:42.665Z,2.08
2019-02-22T05:27:47.571Z,2.42
2019-02-22T05:28:52.559Z,2.30
2019-02-22T05:29:57.348Z,2.15
2019-02-22T05:31:02.112Z,2.20
2019-02-22T05:32:07.298Z,2.65
2019-02-22T05:33:12.053Z,2.50
2019-02-22T05:34:16.964Z,2.35
2019-02-22T05:35:21.918Z,2.20
2019-02-22T05:36:26.908Z,2.80
2019-02-22T05:37:32.065Z,2.62
2019-02-22T05:38:36.856Z,2.22
2019-02-22T05:39:41.897Z,2.60
2019-02-22T05:40:46.713Z,2.60
2019-02-22T05:41:51.768Z,2.60
2019-02-22T05:42:56.657Z,2.40
2019-02-22T05:44:01.681Z,3.00
2019-02-22T05:45:06.807Z,2.50
2019-02-22T05:46:11.719Z,3.47
2019-02-22T05:47:16.645Z,3.27
2019-02-22T05:48:21.588Z,3.30
2019-02-22T05:49:26.336Z,2.90
2019-02-22T05:50:31.313Z,2.58
2019-02-22T05:51:36.776Z,2.80
2019-02-22T05:52:41.779Z,2.35
2019-02-22T05:53:46.565Z,2.42
2019-02-22T05:54:51.345Z,2.55
2019-02-22T05:55:56.128Z,2.60
2019-02-22T05:57:00.937Z,2.47
2019-02-22T05:58:05.709Z,2.50
2019-02-22T05:59:10.629Z,2.83
2019-02-22T06:00:17.704Z,3.02
2019-02-22T06:01:22.803Z,3.05
2019-02-22T06:02:27.561Z,3.10
2019-02-22T06:03:32.510Z,4.40
2019-02-22T06:04:37.450Z,3.40
2019-02-22T06:05:42.883Z,3.33
2019-02-22T06:06:48.327Z,3.08
2019-02-22T06:07:53.758Z,2.37
2019-02-22T06:08:59.358Z,2.65
2019-02-22T06:10:05.038Z,2.47
2019-02-22T06:11:10.680Z,2.45
2019-02-22T06:12:18.501Z,2.33
2019-02-22T06:13:23.438Z,2.30
2019-02-22T06:14:28.408Z,2.35
2019-02-22T06:15:33.398Z,2.92
2019-02-22T06:16:45.432Z,2.72
2019-02-22T06:17:51.161Z,2.62
2019-02-22T06:18:56.336Z,2.92
2019-02-22T06:20:01.253Z,2.65
2019-02-22T06:21:06.309Z,2.95
2019-02-22T06:22:11.353Z,2.62
2019-02-22T06:23:16.230Z,2.98
2019-02-22T06:24:21.166Z,2.55
2019-02-22T06:25:26.179Z,2.50
2019-02-22T06:26:32.784Z,2.25
2019-02-22T06:27:38.330Z,2.22
2019-02-22T06:28:43.364Z,2.22
2019-02-22T06:29:49.697Z,1.90
2019-02-22T06:30:54.770Z,2.30
2019-02-22T06:31:59.820Z,2.27
2019-02-22T06:33:04.831Z,2.10
2019-02-22T06:34:09.761Z,2.42
2019-02-22T06:35:14.881Z,2.22
2019-02-22T06:36:19.814Z,2.33
2019-02-22T06:37:24.883Z,2.30
2019-02-22T06:38:29.839Z,2.20
2019-02-22T06:39:34.740Z,2.30
2019-02-22T06:40:39.670Z,2.02
2019-02-22T06:41:44.380Z,2.30
2019-02-22T06:42:49.157Z,2.65
2019-02-22T06:43:53.885Z,2.77
2019-02-22T06:44:58.646Z,2.75
2019-02-22T06:46:03.661Z,2.65
2019-02-22T06:47:08.572Z,2.85
2019-02-22T06:48:13.443Z,2.30
2019-02-22T06:49:18.284Z,2.62
2019-02-22T06:50:33.401Z,2.83
2019-02-22T06:51:29.610Z,2.98
2019-02-22T06:52:34.420Z,2.80
2019-02-22T06:53:39.298Z,2.30
2019-02-22T06:54:44.166Z,2.60
2019-02-22T06:55:48.898Z,2.75
2019-02-22T06:56:53.701Z,2.00
2019-02-22T06:57:58.459Z,2.22
2019-02-22T06:59:03.311Z,2.60
2019-02-22T07:00:09.556Z,2.90
2019-02-22T07:01:14.326Z,3.35
2019-02-22T07:02:19.335Z,3.40
2019-02-22T07:03:24.098Z,3.00
2019-02-22T07:04:28.806Z,3.92
2019-02-22T07:05:33.553Z,3.30
2019-02-22T07:06:38.232Z,3.90
2019-02-22T07:07:42.993Z,4.58
2019-02-22T07:08:47.735Z,3.75
2019-02-22T07:09:52.488Z,4.00
2019-02-22T07:11:16.538Z,2.70
2019-02-22T07:12:34.086Z,2.00
2019-02-22T07:13:38.843Z,2.02
2019-02-22T07:14:43.574Z,3.12
2019-02-22T07:15:48.366Z,2.37
2019-02-22T07:16:53.132Z,2.37
2019-02-22T07:18:00.247Z,2.42
2019-02-22T07:19:04.960Z,2.52
2019-02-22T07:20:13.136Z,2.15
2019-02-22T07:21:17.916Z,2.83
2019-02-22T07:22:22.653Z,2.35
2019-02-22T07:23:27.431Z,2.00
2019-02-22T07:24:32.265Z,2.30
2019-02-22T07:25:36.952Z,3.15
2019-02-22T07:26:41.669Z,2.50
2019-02-22T07:27:56.551Z,3.15
2019-02-22T07:29:01.272Z,3.42
2019-02-22T07:30:06.980Z,3.00
2019-02-22T07:31:11.848Z,3.27
2019-02-22T07:32:16.739Z,3.17
2019-02-22T07:33:23.696Z,3.30
2019-02-22T07:34:28.684Z,2.77
2019-02-22T07:35:33.751Z,2.70
2019-02-22T07:36:38.740Z,2.80
2019-02-22T07:37:43.819Z,3.25
2019-02-22T07:38:49.186Z,1.98
2019-02-22T07:39:54.077Z,2.22
2019-02-22T07:40:58.989Z,2.05
2019-02-22T07:42:04.010Z,2.33
2019-02-22T07:43:09.109Z,2.50
2019-02-22T07:44:14.044Z,3.87
2019-02-22T07:45:19.078Z,3.10
2019-02-22T07:46:24.062Z,3.15
2019-02-22T07:47:29.325Z,2.77
2019-02-22T07:48:35.552Z,2.50
2019-02-22T07:49:40.628Z,2.22
2019-02-22T07:50:56.832Z,2.45
2019-02-22T07:51:52.611Z,2.62
2019-02-22T07:52:57.520Z,2.85
2019-02-22T07:54:02.499Z,2.02
2019-02-22T07:55:08.321Z,2.37
2019-02-22T07:56:13.227Z,2.30
2019-02-22T07:57:18.281Z,3.40
2019-02-22T07:58:25.577Z,2.20
2019-02-22T07:59:31.577Z,2.55
2019-02-22T08:00:37.207Z,2.60
2019-02-22T08:01:47.352Z,2.47
2019-02-22T08:02:48.825Z,2.35
2019-02-22T08:03:53.798Z,3.30
2019-02-22T08:04:58.777Z,2.72
2019-02-22T08:06:04.937Z,2.60
2019-02-22T08:07:10.494Z,2.87
2019-02-22T08:08:15.223Z,2.22
2019-02-22T08:09:22.473Z,2.35
2019-02-22T08:10:27.180Z,1.77
2019-02-22T08:11:32.814Z,1.98
2019-02-22T08:12:37.583Z,1.90
2019-02-22T08:13:42.414Z,2.00
2019-02-22T08:14:47.157Z,1.98
2019-02-22T08:15:51.945Z,2.45
2019-02-22T08:16:56.692Z,3.20
2019-02-22T08:18:01.397Z,2.15
2019-02-22T08:19:06.238Z,2.25
2019-02-22T08:20:11.249Z,3.08
2019-02-22T08:21:16.141Z,2.40
2019-02-22T08:22:21.261Z,1.90
2019-02-22T08:23:25.958Z,2.05
2019-02-22T08:24:30.760Z,2.35
2019-02-22T08:25:35.613Z,2.40
2019-02-22T08:26:40.350Z,2.00
2019-02-22T08:27:53.168Z,1.70
2019-02-22T08:28:51.622Z,2.08
2019-02-22T08:29:56.331Z,7.72
2019-02-22T08:31:01.097Z,2.98
2019-02-22T08:32:06.227Z,2.10
2019-02-22T08:33:10.970Z,1.95
2019-02-22T08:34:15.695Z,1.90
2019-02-22T08:35:20.536Z,2.02
2019-02-22T08:36:27.239Z,1.90
2019-02-22T08:37:32.173Z,2.30
2019-02-22T08:38:36.932Z,2.00
2019-02-22T08:39:42.074Z,2.08
2019-02-22T08:40:47.037Z,1.70
2019-02-22T08:41:52.047Z,1.95
2019-02-22T08:42:57.010Z,2.12
2019-02-22T08:44:02.134Z,2.20
2019-02-22T08:45:09.634Z,2.92
2019-02-22T08:46:14.860Z,2.40
2019-02-22T08:47:19.901Z,2.52
2019-02-22T08:48:24.858Z,1.80
2019-02-22T08:49:30.055Z,1.80
2019-02-22T08:50:35.350Z,2.27
2019-02-22T08:51:40.451Z,2.10
2019-02-22T08:52:45.564Z,2.50
2019-02-22T08:53:50.917Z,2.30
2019-02-22T08:54:56.168Z,2.15
2019-02-22T08:56:01.289Z,3.42
2019-02-22T08:57:11.882Z,3.75
2019-02-22T08:58:16.788Z,3.40
2019-02-22T08:59:21.916Z,2.65
2019-02-22T09:00:27.198Z,2.20
2019-02-22T09:01:32.319Z,2.52
2019-02-22T09:02:37.545Z,1.90
2019-02-22T09:03:50.646Z,1.77
2019-02-22T09:04:48.987Z,2.37
2019-02-22T09:05:59.119Z,2.60
2019-02-22T09:07:03.874Z,2.22
2019-02-22T09:08:08.708Z,3.50
2019-02-22T09:09:13.624Z,2.67
2019-02-22T09:10:18.579Z,3.35
2019-02-22T09:11:25.718Z,3.45
2019-02-22T09:12:31.000Z,3.77
2019-02-22T09:13:43.667Z,2.98
2019-02-22T09:14:42.767Z,1.92
2019-02-22T09:15:48.148Z,2.10
2019-02-22T09:16:53.808Z,1.90
2019-02-22T09:17:59.279Z,1.90
2019-02-22T09:19:05.010Z,1.40
2019-02-22T09:20:10.890Z,1.60
2019-02-22T09:21:16.483Z,1.67
2019-02-22T09:22:23.253Z,2.20
2019-02-22T09:23:29.280Z,2.10
2019-02-22T09:24:34.622Z,1.70
2019-02-22T09:25:39.528Z,2.50
2019-02-22T09:26:46.665Z,2.10
2019-02-22T09:27:51.861Z,1.80
2019-02-22T09:28:57.067Z,2.00
2019-02-22T09:30:02.182Z,2.25
2019-02-22T09:31:07.465Z,2.10
2019-02-22T09:32:12.736Z,2.42
2019-02-22T09:33:17.753Z,1.80
2019-02-22T09:34:23.620Z,2.08
2019-02-22T09:35:29.300Z,2.10
2019-02-22T09:36:37.583Z,2.20
2019-02-22T09:37:42.823Z,2.10
2019-02-22T09:38:48.172Z,2.10
2019-02-22T09:39:53.328Z,1.87
2019-02-22T09:40:58.524Z,2.00
2019-02-22T09:42:03.692Z,1.50
2019-02-22T09:43:08.709Z,1.30
2019-02-22T09:44:13.752Z,1.45
2019-02-22T09:45:18.815Z,1.92
2019-02-22T09:46:24.029Z,1.80
2019-02-22T09:47:32.176Z,1.50
2019-02-22T09:48:37.465Z,1.80
2019-02-22T09:49:42.757Z,1.87
2019-02-22T09:50:50.734Z,1.90
2019-02-22T09:51:55.941Z,1.50
2019-02-22T09:53:00.979Z,1.92
2019-02-22T09:54:06.029Z,1.40
2019-02-22T09:55:12.103Z,1.70
2019-02-22T09:56:17.297Z,1.95
2019-02-22T09:57:24.893Z,2.00
2019-02-22T09:58:30.196Z,1.80
2019-02-22T09:59:35.342Z,1.80
2019-02-22T10:00:44.112Z,2.50
2019-02-22T10:01:49.236Z,1.98
2019-02-22T10:02:54.354Z,1.90
2019-02-22T10:03:59.637Z,2.60
2019-02-22T10:05:05.141Z,3.05
2019-02-22T10:06:10.362Z,1.62
2019-02-22T10:07:15.473Z,1.90
2019-02-22T10:08:22.963Z,1.62
2019-02-22T10:09:28.040Z,1.70
2019-02-22T10:10:33.243Z,1.87
2019-02-22T10:11:38.202Z,1.40
2019-02-22T10:12:44.279Z,1.60
2019-02-22T10:13:49.148Z,1.60
2019-02-22T10:14:56.891Z,7.33
2019-02-22T10:16:01.903Z,4.33
2019-02-22T10:17:06.826Z,2.67
2019-02-22T10:18:12.045Z,1.95
2019-02-22T10:19:17.031Z,1.70
2019-02-22T10:20:22.300Z,1.60
2019-02-22T10:21:30.271Z,1.95
2019-02-22T10:22:35.110Z,1.70
2019-02-22T10:23:40.016Z,1.47
2019-02-22T10:24:45.028Z,1.70
2019-02-22T10:25:50.035Z,2.17
2019-02-22T10:26:54.984Z,2.00
2019-02-22T10:28:00.021Z,1.70
2019-02-22T10:29:05.030Z,2.12
2019-02-22T10:30:10.144Z,1.57
2019-02-22T10:31:15.164Z,2.00
2019-02-22T10:32:20.140Z,1.40
2019-02-22T10:33:35.922Z,1.55
2019-02-22T10:34:31.798Z,1.90
2019-02-22T10:35:36.788Z,2.00
2019-02-22T10:36:45.118Z,1.60
2019-02-22T10:37:48.146Z,1.60
2019-02-22T10:38:53.158Z,2.20
2019-02-22T10:40:01.080Z,1.80
2019-02-22T10:41:06.223Z,1.92
2019-02-22T10:42:11.180Z,2.62
2019-02-22T10:43:16.220Z,1.80
2019-02-22T10:44:21.156Z,1.70
2019-02-22T10:45:28.719Z,1.82
2019-02-22T10:46:35.657Z,2.02
2019-02-22T10:47:40.933Z,1.80
2019-02-22T10:48:45.973Z,1.80
2019-02-22T10:49:50.933Z,2.02
2019-02-22T10:50:58.623Z,1.60
2019-02-22T10:52:02.847Z,1.60
2019-02-22T10:53:08.053Z,3.65
2019-02-22T10:54:13.360Z,2.25
2019-02-22T10:55:18.621Z,1.67
2019-02-22T10:56:23.764Z,2.75
2019-02-22T10:57:29.107Z,2.72
2019-02-22T10:58:34.401Z,1.90
2019-02-22T10:59:43.260Z,4.30
2019-02-22T11:00:48.664Z,5.65
2019-02-22T11:01:54.144Z,5.28
2019-02-22T11:02:59.257Z,2.05
2019-02-22T11:04:04.375Z,2.35
2019-02-22T11:05:09.420Z,2.95
2019-02-22T11:06:14.696Z,4.42
2019-02-22T11:07:19.673Z,1.62
2019-02-22T11:08:24.807Z,1.60
2019-02-22T11:09:30.213Z,1.60
2019-02-22T11:10:35.333Z,1.65
2019-02-22T11:11:40.438Z,1.65
2019-02-22T11:12:45.618Z,1.40
2019-02-22T11:13:50.930Z,1.40
2019-02-22T11:14:55.859Z,1.40
2019-02-22T11:16:01.172Z,1.42
2019-02-22T11:17:06.055Z,2.05
2019-02-22T11:18:10.970Z,1.90
2019-02-22T11:19:16.813Z,1.80
2019-02-22T11:20:21.766Z,2.08
2019-02-22T11:21:26.848Z,1.70
2019-02-22T11:22:31.764Z,1.55
2019-02-22T11:23:37.862Z,1.40
2019-02-22T11:24:43.087Z,1.50
2019-02-22T11:25:48.181Z,1.60
2019-02-22T11:26:53.033Z,1.40
2019-02-22T11:27:58.111Z,1.60
2019-02-22T11:29:03.104Z,1.70
2019-02-22T11:30:10.780Z,2.30
2019-02-22T11:31:17.356Z,2.92
2019-02-22T11:32:22.346Z,2.77
2019-02-22T11:33:29.290Z,2.65
2019-02-22T11:34:34.302Z,2.75
2019-02-22T11:35:41.589Z,2.25
2019-02-22T11:36:46.431Z,2.02
2019-02-22T11:37:51.287Z,1.80
2019-02-22T11:38:56.638Z,1.42
2019-02-22T11:40:05.274Z,1.37
2019-02-22T11:41:10.349Z,1.40
2019-02-22T11:42:15.267Z,1.40
2019-02-22T11:43:21.717Z,1.50
2019-02-22T11:44:39.599Z,1.40
2019-02-22T11:45:35.666Z,1.90
2019-02-22T11:46:40.748Z,2.00
2019-02-22T11:47:45.940Z,2.25
2019-02-22T11:48:50.820Z,1.70
2019-02-22T11:49:55.709Z,1.87
2019-02-22T11:51:00.722Z,1.75
2019-02-22T11:52:06.744Z,1.60
2019-02-22T11:53:14.741Z,1.60
2019-02-22T11:54:21.112Z,1.42
2019-02-22T11:55:26.264Z,1.30
2019-02-22T11:56:31.288Z,1.20
2019-02-22T11:57:36.441Z,1.15
2019-02-22T11:58:41.583Z,1.20
2019-02-22T11:59:46.470Z,1.25
2019-02-22T12:00:54.778Z,1.30
2019-02-22T12:01:59.829Z,1.42
2019-02-22T12:03:21.091Z,1.37
2019-02-22T12:04:11.425Z,2.30
2019-02-22T12:05:16.419Z,1.72
2019-02-22T12:06:21.199Z,1.60
2019-02-22T12:07:26.332Z,1.50
2019-02-22T12:08:32.729Z,1.50
2019-02-22T12:09:37.503Z,3.30
2019-02-22T12:10:46.213Z,6.73
2019-02-22T12:11:51.056Z,12.10
2019-02-22T12:12:58.858Z,9.87
2019-02-22T12:14:03.780Z,2.27
2019-02-22T12:15:09.104Z,2.00
2019-02-22T12:16:13.986Z,3.73
2019-02-22T12:17:18.899Z,8.57
2019-02-22T12:18:23.886Z,7.63
2019-02-22T12:19:28.698Z,2.47
2019-02-22T12:20:33.819Z,2.03
2019-02-22T12:21:38.791Z,1.40
2019-02-22T12:22:43.901Z,1.40
2019-02-22T12:23:48.854Z,1.40
2019-02-22T12:24:54.100Z,1.10
2019-02-22T12:25:58.938Z,1.00
2019-02-22T12:27:03.817Z,1.17
2019-02-22T12:28:08.860Z,1.50
2019-02-22T12:29:14.129Z,1.70
2019-02-22T12:30:19.002Z,1.30
2019-02-22T12:31:24.013Z,1.20
2019-02-22T12:32:28.980Z,1.40
2019-02-22T12:33:33.768Z,1.40
2019-02-22T12:34:38.885Z,1.22
2019-02-22T12:35:47.428Z,2.00
2019-02-22T12:36:55.778Z,1.60
2019-02-22T12:38:01.371Z,1.72
2019-02-22T12:39:10.168Z,1.80
2019-02-22T12:40:15.400Z,2.02
2019-02-22T12:41:20.492Z,2.20
2019-02-22T12:42:29.360Z,2.50
2019-02-22T12:43:35.211Z,1.80
2019-02-22T12:44:41.648Z,2.17
2019-02-22T12:45:48.239Z,1.50
2019-02-22T12:46:53.200Z,1.12
2019-02-22T12:47:58.140Z,2.05
2019-02-22T12:49:07.845Z,2.08
2019-02-22T12:50:15.107Z,1.90
2019-02-22T12:51:20.002Z,1.70
2019-02-22T12:52:24.973Z,1.75
2019-02-22T12:53:30.008Z,1.62
2019-02-22T12:54:35.018Z,2.00
2019-02-22T12:55:39.976Z,3.25
2019-02-22T12:56:56.747Z,1.32
2019-02-22T12:57:52.982Z,1.35
2019-02-22T12:58:57.937Z,1.80
2019-02-22T13:00:02.990Z,2.85
2019-02-22T13:01:08.350Z,1.60
2019-02-22T13:02:13.820Z,2.60
2019-02-22T13:03:19.174Z,2.00
2019-02-22T13:04:24.698Z,1.62
2019-02-22T13:05:29.744Z,2.20
2019-02-22T13:06:34.581Z,2.87
2019-02-22T13:07:39.773Z,3.85
2019-02-22T13:08:44.656Z,4.33
2019-02-22T13:09:49.695Z,2.40
2019-02-22T13:10:57.749Z,4.70
2019-02-22T13:12:13.411Z,7.25
2019-02-22T13:13:09.250Z,5.70
2019-02-22T13:14:14.129Z,3.30
2019-02-22T13:15:19.020Z,4.75
2019-02-22T13:16:23.988Z,5.12
2019-02-22T13:17:31.074Z,2.27
2019-02-22T13:18:35.459Z,2.67
2019-02-22T13:19:40.492Z,2.77
2019-02-22T13:20:45.407Z,6.75
2019-02-22T13:21:50.253Z,6.33
2019-02-22T13:22:55.155Z,7.90
2019-02-22T13:23:59.894Z,4.75
2019-02-22T13:25:04.944Z,4.47
2019-02-22T13:26:09.766Z,5.50
2019-02-22T13:27:14.585Z,7.05
2019-02-22T13:28:19.336Z,6.45
2019-02-22T13:29:24.162Z,4.25
2019-02-22T13:30:28.918Z,5.42
2019-02-22T13:31:33.716Z,2.95
2019-02-22T13:32:38.566Z,2.70
2019-02-22T13:33:43.363Z,2.20
2019-02-22T13:34:48.212Z,1.77
2019-02-22T13:35:52.998Z,1.62
2019-02-22T13:36:57.695Z,2.77
2019-02-22T13:38:02.575Z,2.35
2019-02-22T13:39:07.284Z,3.83
2019-02-22T13:40:13.437Z,3.58
2019-02-22T13:41:18.172Z,3.30
2019-02-22T13:42:22.998Z,2.42
2019-02-22T13:43:27.851Z,3.42
2019-02-22T13:44:32.712Z,5.10
2019-02-22T13:45:37.594Z,3.25
2019-02-22T13:46:42.355Z,2.65
2019-02-22T13:47:48.426Z,3.02
2019-02-22T13:48:53.308Z,4.60
2019-02-22T13:49:58.053Z,3.33
2019-02-22T13:51:02.795Z,2.22
2019-02-22T13:52:09.294Z,2.20
2019-02-22T13:53:14.328Z,2.30
2019-02-22T13:54:19.386Z,1.92
2019-02-22T13:55:24.250Z,1.70
2019-02-22T13:56:30.080Z,1.52
2019-02-22T13:57:35.023Z,1.62
2019-02-22T13:58:39.732Z,1.30
2019-02-22T13:59:44.565Z,1.77
2019-02-22T14:00:49.353Z,1.67
2019-02-22T14:01:55.086Z,2.00
2019-02-22T14:02:59.904Z,1.90
2019-02-22T14:04:04.793Z,2.08
2019-02-22T14:05:09.638Z,2.22
2019-02-22T14:06:14.406Z,2.30
2019-02-22T14:07:19.128Z,3.80
2019-02-22T14:08:23.926Z,4.12
2019-02-22T14:09:28.714Z,3.00
2019-02-22T14:10:33.837Z,3.20
2019-02-22T14:11:38.530Z,2.90
2019-02-22T14:12:43.274Z,2.90
2019-02-22T14:13:48.317Z,2.62
2019-02-22T14:14:53.132Z,2.40
2019-02-22T14:15:57.926Z,2.30
2019-02-22T14:17:02.661Z,2.00
2019-02-22T14:18:07.440Z,1.90
2019-02-22T14:19:12.251Z,2.20
2019-02-22T14:20:16.965Z,2.37
2019-02-22T14:21:21.817Z,2.30
2019-02-22T14:22:26.629Z,1.82
2019-02-22T14:23:31.399Z,2.30
2019-02-22T14:24:36.127Z,2.37
2019-02-22T14:25:40.957Z,2.30
2019-02-22T14:26:45.762Z,1.92
2019-02-22T14:27:50.534Z,1.77
2019-02-22T14:28:55.331Z,1.75
2019-02-22T14:30:00.314Z,1.90